sensor_id;sensor_type;location;lat;lon;timestamp;pressure;altitude;pressure_sealevel;temperature;humidity
62632;BME280;48703;51.248;-0.546;2023-08-31T00:01:29;100389;;;13.45;83.13
62632;BME280;48703;51.248;-0.546;2023-08-31T00:04:31;100390;;;13.43;83.28
62632;BME280;48703;51.248;-0.546;2023-08-31T00:07:33;100395;;;13.40;83.42
62632;BME280;48703;51.248;-0.546;2023-08-31T00:10:35;100390;;;13.36;83.67
62632;BME280;48703;51.248;-0.546;2023-08-31T00:13:37;100385;;;13.35;83.63
62632;BME280;48703;51.248;-0.546;2023-08-31T00:16:39;100386;;;13.30;83.74
62632;BME280;48703;51.248;-0.546;2023-08-31T00:19:41;100382;;;13.27;83.75
62632;BME280;48703;51.248;-0.546;2023-08-31T00:22:43;100378;;;13.25;84.33
62632;BME280;48703;51.248;-0.546;2023-08-31T00:25:45;100379;;;13.22;84.31
62632;BME280;48703;51.248;-0.546;2023-08-31T00:28:47;100375;;;13.22;84.37
62632;BME280;48703;51.248;-0.546;2023-08-31T00:31:49;100373;;;13.22;84.29
62632;BME280;48703;51.248;-0.546;2023-08-31T00:34:51;100370;;;13.20;83.72
62632;BME280;48703;51.248;-0.546;2023-08-31T00:37:54;100376;;;13.15;84.93
62632;BME280;48703;51.248;-0.546;2023-08-31T00:40:55;100379;;;13.10;85.08
62632;BME280;48703;51.248;-0.546;2023-08-31T00:43:57;100377;;;13.07;84.62
62632;BME280;48703;51.248;-0.546;2023-08-31T00:46:59;100371;;;13.02;84.76
62632;BME280;48703;51.248;-0.546;2023-08-31T00:50:01;100370;;;13.01;85.22
62632;BME280;48703;51.248;-0.546;2023-08-31T00:53:03;100374;;;13.00;85.08
62632;BME280;48703;51.248;-0.546;2023-08-31T00:56:05;100373;;;12.99;84.93
62632;BME280;48703;51.248;-0.546;2023-08-31T00:59:07;100374;;;13.00;84.90
62632;BME280;48703;51.248;-0.546;2023-08-31T01:02:11;100372;;;12.99;85.25
62632;BME280;48703;51.248;-0.546;2023-08-31T01:05:13;100367;;;12.96;84.99
62632;BME280;48703;51.248;-0.546;2023-08-31T01:08:18;100365;;;12.93;85.19
62632;BME280;48703;51.248;-0.546;2023-08-31T01:11:19;100366;;;12.92;84.55
62632;BME280;48703;51.248;-0.546;2023-08-31T01:14:18;100366;;;12.93;84.47
62632;BME280;48703;51.248;-0.546;2023-08-31T01:17:20;100368;;;12.92;84.22
62632;BME280;48703;51.248;-0.546;2023-08-31T01:20:25;100372;;;12.87;84.93
62632;BME280;48703;51.248;-0.546;2023-08-31T01:23:25;100369;;;12.80;85.41
62632;BME280;48703;51.248;-0.546;2023-08-31T01:26:26;100366;;;12.80;85.06
62632;BME280;48703;51.248;-0.546;2023-08-31T01:29:29;100368;;;12.75;85.61
62632;BME280;48703;51.248;-0.546;2023-08-31T01:32:30;100365;;;12.76;85.03
62632;BME280;48703;51.248;-0.546;2023-08-31T01:35:33;100362;;;12.78;84.94
62632;BME280;48703;51.248;-0.546;2023-08-31T01:38:34;100360;;;12.70;85.48
62632;BME280;48703;51.248;-0.546;2023-08-31T01:41:36;100359;;;12.59;86.17
62632;BME280;48703;51.248;-0.546;2023-08-31T01:44:38;100356;;;12.59;86.11
62632;BME280;48703;51.248;-0.546;2023-08-31T01:47:40;100353;;;12.56;86.06
62632;BME280;48703;51.248;-0.546;2023-08-31T01:50:42;100351;;;12.52;85.63
62632;BME280;48703;51.248;-0.546;2023-08-31T01:53:44;100349;;;12.47;86.58
62632;BME280;48703;51.248;-0.546;2023-08-31T01:56:46;100352;;;12.43;86.27
62632;BME280;48703;51.248;-0.546;2023-08-31T01:59:48;100354;;;12.48;85.87
62632;BME280;48703;51.248;-0.546;2023-08-31T02:02:50;100356;;;12.50;85.92
62632;BME280;48703;51.248;-0.546;2023-08-31T02:05:52;100355;;;12.51;85.94
62632;BME280;48703;51.248;-0.546;2023-08-31T02:08:54;100354;;;12.49;85.71
62632;BME280;48703;51.248;-0.546;2023-08-31T02:11:56;100354;;;12.47;85.81
62632;BME280;48703;51.248;-0.546;2023-08-31T02:14:58;100351;;;12.45;85.52
62632;BME280;48703;51.248;-0.546;2023-08-31T02:18:00;100350;;;12.45;85.86
62632;BME280;48703;51.248;-0.546;2023-08-31T02:21:02;100353;;;12.36;86.36
62632;BME280;48703;51.248;-0.546;2023-08-31T02:24:05;100347;;;12.37;86.29
62632;BME280;48703;51.248;-0.546;2023-08-31T02:27:06;100346;;;12.37;86.06
62632;BME280;48703;51.248;-0.546;2023-08-31T02:30:09;100343;;;12.35;86.71
62632;BME280;48703;51.248;-0.546;2023-08-31T02:33:11;100340;;;12.27;87.44
62632;BME280;48703;51.248;-0.546;2023-08-31T02:36:13;100335;;;12.26;86.91
62632;BME280;48703;51.248;-0.546;2023-08-31T02:39:15;100332;;;12.31;86.58
62632;BME280;48703;51.248;-0.546;2023-08-31T02:42:17;100328;;;12.31;86.44
62632;BME280;48703;51.248;-0.546;2023-08-31T02:45:19;100330;;;12.25;87.24
62632;BME280;48703;51.248;-0.546;2023-08-31T02:48:21;100330;;;12.22;87.08
62632;BME280;48703;51.248;-0.546;2023-08-31T02:51:23;100331;;;12.22;87.36
62632;BME280;48703;51.248;-0.546;2023-08-31T02:54:25;100334;;;12.20;88.06
62632;BME280;48703;51.248;-0.546;2023-08-31T02:57:27;100334;;;12.21;87.83
62632;BME280;48703;51.248;-0.546;2023-08-31T03:00:29;100338;;;12.15;88.28
62632;BME280;48703;51.248;-0.546;2023-08-31T03:03:31;100340;;;12.18;87.61
62632;BME280;48703;51.248;-0.546;2023-08-31T03:06:33;100342;;;12.17;87.89
62632;BME280;48703;51.248;-0.546;2023-08-31T03:09:35;100347;;;12.17;88.48
62632;BME280;48703;51.248;-0.546;2023-08-31T03:12:37;100350;;;12.15;87.74
62632;BME280;48703;51.248;-0.546;2023-08-31T03:15:39;100350;;;12.19;87.49
62632;BME280;48703;51.248;-0.546;2023-08-31T03:18:41;100347;;;12.21;87.21
62632;BME280;48703;51.248;-0.546;2023-08-31T03:21:43;100342;;;12.23;87.07
62632;BME280;48703;51.248;-0.546;2023-08-31T03:24:45;100343;;;12.24;87.45
62632;BME280;48703;51.248;-0.546;2023-08-31T03:27:47;100342;;;12.21;88.51
62632;BME280;48703;51.248;-0.546;2023-08-31T03:30:53;100338;;;12.21;88.43
62632;BME280;48703;51.248;-0.546;2023-08-31T03:33:51;100336;;;12.18;88.82
62632;BME280;48703;51.248;-0.546;2023-08-31T03:36:53;100334;;;12.13;89.08
62632;BME280;48703;51.248;-0.546;2023-08-31T03:39:55;100336;;;12.10;88.91
62632;BME280;48703;51.248;-0.546;2023-08-31T03:42:57;100336;;;12.13;88.84
62632;BME280;48703;51.248;-0.546;2023-08-31T03:46:00;100335;;;12.17;87.37
62632;BME280;48703;51.248;-0.546;2023-08-31T03:49:01;100336;;;12.19;87.99
62632;BME280;48703;51.248;-0.546;2023-08-31T03:52:04;100328;;;12.16;87.77
62632;BME280;48703;51.248;-0.546;2023-08-31T03:55:06;100322;;;12.17;87.50
62632;BME280;48703;51.248;-0.546;2023-08-31T03:58:07;100318;;;12.20;87.32
62632;BME280;48703;51.248;-0.546;2023-08-31T04:01:10;100317;;;12.17;88.20
62632;BME280;48703;51.248;-0.546;2023-08-31T04:04:12;100324;;;12.12;89.04
62632;BME280;48703;51.248;-0.546;2023-08-31T04:07:14;100328;;;12.07;89.11
62632;BME280;48703;51.248;-0.546;2023-08-31T04:10:16;100334;;;12.06;89.04
62632;BME280;48703;51.248;-0.546;2023-08-31T04:13:18;100334;;;12.07;88.45
62632;BME280;48703;51.248;-0.546;2023-08-31T04:16:20;100336;;;12.10;88.13
62632;BME280;48703;51.248;-0.546;2023-08-31T04:19:22;100345;;;12.07;89.21
62632;BME280;48703;51.248;-0.546;2023-08-31T04:22:24;100349;;;12.06;89.01
62632;BME280;48703;51.248;-0.546;2023-08-31T04:25:28;100346;;;12.08;88.89
62632;BME280;48703;51.248;-0.546;2023-08-31T04:28:28;100341;;;12.10;87.98
62632;BME280;48703;51.248;-0.546;2023-08-31T04:31:30;100346;;;12.09;89.00
62632;BME280;48703;51.248;-0.546;2023-08-31T04:34:32;100349;;;12.06;89.04
62632;BME280;48703;51.248;-0.546;2023-08-31T04:37:34;100349;;;12.06;89.22
62632;BME280;48703;51.248;-0.546;2023-08-31T04:40:36;100347;;;12.08;89.22
62632;BME280;48703;51.248;-0.546;2023-08-31T04:43:38;100343;;;12.11;88.39
62632;BME280;48703;51.248;-0.546;2023-08-31T04:46:40;100340;;;12.16;88.66
62632;BME280;48703;51.248;-0.546;2023-08-31T04:49:42;100342;;;12.15;88.37
62632;BME280;48703;51.248;-0.546;2023-08-31T04:52:44;100344;;;12.08;88.78
62632;BME280;48703;51.248;-0.546;2023-08-31T04:55:46;100345;;;12.06;88.71
62632;BME280;48703;51.248;-0.546;2023-08-31T04:58:48;100354;;;12.06;88.74
62632;BME280;48703;51.248;-0.546;2023-08-31T05:01:50;100356;;;12.04;89.38
62632;BME280;48703;51.248;-0.546;2023-08-31T05:04:52;100357;;;12.02;89.05
62632;BME280;48703;51.248;-0.546;2023-08-31T05:07:54;100357;;;12.01;89.29
62632;BME280;48703;51.248;-0.546;2023-08-31T05:10:56;100357;;;12.02;89.52
62632;BME280;48703;51.248;-0.546;2023-08-31T05:13:58;100350;;;12.03;89.26
62632;BME280;48703;51.248;-0.546;2023-08-31T05:17:00;100352;;;12.02;89.18
62632;BME280;48703;51.248;-0.546;2023-08-31T05:20:03;100351;;;12.02;89.92
62632;BME280;48703;51.248;-0.546;2023-08-31T05:23:04;100352;;;12.05;89.30
62632;BME280;48703;51.248;-0.546;2023-08-31T05:26:06;100349;;;12.08;89.36
62632;BME280;48703;51.248;-0.546;2023-08-31T05:29:09;100353;;;12.06;89.83
62632;BME280;48703;51.248;-0.546;2023-08-31T05:32:11;100355;;;12.04;90.42
62632;BME280;48703;51.248;-0.546;2023-08-31T05:35:13;100359;;;12.01;91.19
62632;BME280;48703;51.248;-0.546;2023-08-31T05:38:15;100363;;;12.02;90.96
62632;BME280;48703;51.248;-0.546;2023-08-31T05:41:17;100364;;;12.05;90.55
62632;BME280;48703;51.248;-0.546;2023-08-31T05:44:19;100361;;;12.08;90.54
62632;BME280;48703;51.248;-0.546;2023-08-31T05:47:21;100362;;;12.07;91.03
62632;BME280;48703;51.248;-0.546;2023-08-31T05:50:23;100366;;;12.11;90.57
62632;BME280;48703;51.248;-0.546;2023-08-31T05:53:25;100372;;;12.15;89.69
62632;BME280;48703;51.248;-0.546;2023-08-31T05:56:27;100366;;;12.20;89.86
62632;BME280;48703;51.248;-0.546;2023-08-31T05:59:29;100364;;;12.24;89.14
62632;BME280;48703;51.248;-0.546;2023-08-31T06:02:31;100364;;;12.29;89.15
62632;BME280;48703;51.248;-0.546;2023-08-31T06:05:33;100364;;;12.31;90.19
62632;BME280;48703;51.248;-0.546;2023-08-31T06:08:35;100369;;;12.30;90.56
62632;BME280;48703;51.248;-0.546;2023-08-31T06:11:37;100371;;;12.33;89.67
62632;BME280;48703;51.248;-0.546;2023-08-31T06:14:39;100374;;;12.37;88.69
62632;BME280;48703;51.248;-0.546;2023-08-31T06:17:41;100373;;;12.41;88.50
62632;BME280;48703;51.248;-0.546;2023-08-31T06:20:43;100370;;;12.44;88.26
62632;BME280;48703;51.248;-0.546;2023-08-31T06:23:46;100373;;;12.47;88.67
62632;BME280;48703;51.248;-0.546;2023-08-31T06:26:47;100374;;;12.49;88.44
62632;BME280;48703;51.248;-0.546;2023-08-31T06:29:49;100372;;;12.50;88.33
62632;BME280;48703;51.248;-0.546;2023-08-31T06:32:51;100370;;;12.50;88.40
62632;BME280;48703;51.248;-0.546;2023-08-31T06:35:53;100369;;;12.52;88.98
62632;BME280;48703;51.248;-0.546;2023-08-31T06:38:55;100370;;;12.52;88.02
62632;BME280;48703;51.248;-0.546;2023-08-31T06:41:57;100373;;;12.57;88.48
62632;BME280;48703;51.248;-0.546;2023-08-31T06:44:59;100381;;;12.62;88.90
62632;BME280;48703;51.248;-0.546;2023-08-31T06:48:01;100384;;;12.64;88.82
62632;BME280;48703;51.248;-0.546;2023-08-31T06:51:03;100384;;;12.66;88.84
62632;BME280;48703;51.248;-0.546;2023-08-31T06:54:05;100381;;;12.68;88.48
62632;BME280;48703;51.248;-0.546;2023-08-31T06:57:07;100381;;;12.72;88.78
62632;BME280;48703;51.248;-0.546;2023-08-31T07:00:10;100382;;;12.76;88.98
62632;BME280;48703;51.248;-0.546;2023-08-31T07:03:12;100388;;;12.81;88.42
62632;BME280;48703;51.248;-0.546;2023-08-31T07:06:14;100393;;;12.85;88.57
62632;BME280;48703;51.248;-0.546;2023-08-31T07:09:16;100394;;;12.83;87.99
62632;BME280;48703;51.248;-0.546;2023-08-31T07:12:18;100396;;;12.83;87.69
62632;BME280;48703;51.248;-0.546;2023-08-31T07:15:20;100397;;;12.89;88.37
62632;BME280;48703;51.248;-0.546;2023-08-31T07:18:22;100396;;;12.93;87.63
62632;BME280;48703;51.248;-0.546;2023-08-31T07:21:24;100394;;;12.96;87.03
62632;BME280;48703;51.248;-0.546;2023-08-31T07:24:26;100394;;;13.00;86.88
62632;BME280;48703;51.248;-0.546;2023-08-31T07:27:28;100392;;;13.04;86.57
62632;BME280;48703;51.248;-0.546;2023-08-31T07:30:30;100389;;;13.10;86.76
62632;BME280;48703;51.248;-0.546;2023-08-31T07:33:32;100385;;;13.17;86.59
62632;BME280;48703;51.248;-0.546;2023-08-31T07:36:34;100379;;;13.27;87.84
62632;BME280;48703;51.248;-0.546;2023-08-31T07:39:36;100376;;;13.33;86.79
62632;BME280;48703;51.248;-0.546;2023-08-31T07:42:38;100376;;;13.39;86.20
62632;BME280;48703;51.248;-0.546;2023-08-31T07:45:40;100383;;;13.44;87.00
62632;BME280;48703;51.248;-0.546;2023-08-31T07:48:42;100384;;;13.50;86.27
62632;BME280;48703;51.248;-0.546;2023-08-31T07:51:44;100383;;;13.54;85.58
62632;BME280;48703;51.248;-0.546;2023-08-31T07:54:46;100385;;;13.58;85.56
62632;BME280;48703;51.248;-0.546;2023-08-31T07:57:48;100384;;;13.64;86.20
62632;BME280;48703;51.248;-0.546;2023-08-31T08:00:52;100382;;;13.67;85.26
62632;BME280;48703;51.248;-0.546;2023-08-31T08:03:52;100386;;;13.71;85.29
62632;BME280;48703;51.248;-0.546;2023-08-31T08:06:54;100385;;;13.76;85.05
62632;BME280;48703;51.248;-0.546;2023-08-31T08:09:56;100381;;;13.81;85.13
62632;BME280;48703;51.248;-0.546;2023-08-31T08:12:58;100379;;;13.86;84.85
62632;BME280;48703;51.248;-0.546;2023-08-31T08:16:01;100379;;;13.90;84.77
62632;BME280;48703;51.248;-0.546;2023-08-31T08:19:02;100382;;;13.93;84.98
62632;BME280;48703;51.248;-0.546;2023-08-31T08:22:04;100383;;;13.98;84.86
62632;BME280;48703;51.248;-0.546;2023-08-31T08:25:07;100382;;;14.02;84.62
62632;BME280;48703;51.248;-0.546;2023-08-31T08:28:08;100381;;;14.08;85.26
62632;BME280;48703;51.248;-0.546;2023-08-31T08:31:11;100383;;;14.14;85.52
62632;BME280;48703;51.248;-0.546;2023-08-31T08:34:13;100384;;;14.18;84.76
62632;BME280;48703;51.248;-0.546;2023-08-31T08:37:15;100385;;;14.23;84.21
62632;BME280;48703;51.248;-0.546;2023-08-31T08:40:17;100384;;;14.26;84.03
62632;BME280;48703;51.248;-0.546;2023-08-31T08:43:20;100383;;;14.28;83.92
62632;BME280;48703;51.248;-0.546;2023-08-31T08:46:21;100383;;;14.30;83.75
62632;BME280;48703;51.248;-0.546;2023-08-31T08:49:23;100380;;;14.31;83.42
62632;BME280;48703;51.248;-0.546;2023-08-31T08:52:25;100380;;;14.32;83.49
62632;BME280;48703;51.248;-0.546;2023-08-31T08:55:27;100379;;;14.32;83.61
62632;BME280;48703;51.248;-0.546;2023-08-31T08:58:29;100380;;;14.33;83.95
62632;BME280;48703;51.248;-0.546;2023-08-31T09:01:31;100381;;;14.33;84.09
62632;BME280;48703;51.248;-0.546;2023-08-31T09:04:33;100380;;;14.34;84.30
62632;BME280;48703;51.248;-0.546;2023-08-31T09:07:35;100384;;;14.37;84.97
62632;BME280;48703;51.248;-0.546;2023-08-31T09:10:38;100386;;;14.39;84.83
62632;BME280;48703;51.248;-0.546;2023-08-31T09:13:39;100384;;;14.41;85.10
62632;BME280;48703;51.248;-0.546;2023-08-31T09:16:43;100385;;;14.44;85.45
62632;BME280;48703;51.248;-0.546;2023-08-31T09:19:43;100384;;;14.44;85.76
62632;BME280;48703;51.248;-0.546;2023-08-31T09:22:45;100384;;;14.46;86.89
62632;BME280;48703;51.248;-0.546;2023-08-31T09:25:47;100382;;;14.47;86.26
62632;BME280;48703;51.248;-0.546;2023-08-31T09:28:49;100383;;;14.49;86.05
62632;BME280;48703;51.248;-0.546;2023-08-31T09:31:51;100382;;;14.51;86.64
62632;BME280;48703;51.248;-0.546;2023-08-31T09:34:54;100379;;;14.53;86.60
62632;BME280;48703;51.248;-0.546;2023-08-31T09:37:55;100379;;;14.56;87.14
62632;BME280;48703;51.248;-0.546;2023-08-31T09:41:03;100380;;;14.58;87.50
62632;BME280;48703;51.248;-0.546;2023-08-31T09:44:05;100377;;;14.60;87.49
62632;BME280;48703;51.248;-0.546;2023-08-31T09:47:01;100379;;;14.63;88.49
62632;BME280;48703;51.248;-0.546;2023-08-31T09:50:04;100379;;;14.64;88.37
62632;BME280;48703;51.248;-0.546;2023-08-31T09:53:05;100376;;;14.67;88.49
62632;BME280;48703;51.248;-0.546;2023-08-31T09:56:08;100372;;;14.68;87.91
62632;BME280;48703;51.248;-0.546;2023-08-31T09:59:10;100368;;;14.71;88.25
62632;BME280;48703;51.248;-0.546;2023-08-31T10:02:12;100368;;;14.73;88.21
62632;BME280;48703;51.248;-0.546;2023-08-31T10:05:14;100366;;;14.77;88.77
62632;BME280;48703;51.248;-0.546;2023-08-31T10:08:16;100366;;;14.82;88.87
62632;BME280;48703;51.248;-0.546;2023-08-31T10:11:18;100362;;;14.85;89.07
62632;BME280;48703;51.248;-0.546;2023-08-31T10:14:20;100358;;;14.89;89.64
62632;BME280;48703;51.248;-0.546;2023-08-31T10:17:22;100357;;;14.91;89.44
62632;BME280;48703;51.248;-0.546;2023-08-31T10:20:24;100353;;;14.93;90.11
62632;BME280;48703;51.248;-0.546;2023-08-31T10:23:26;100351;;;14.95;90.37
62632;BME280;48703;51.248;-0.546;2023-08-31T10:26:28;100350;;;14.97;90.13
62632;BME280;48703;51.248;-0.546;2023-08-31T10:29:30;100353;;;14.99;90.41
62632;BME280;48703;51.248;-0.546;2023-08-31T10:32:32;100358;;;15.01;89.93
62632;BME280;48703;51.248;-0.546;2023-08-31T10:35:40;100357;;;15.05;89.38
62632;BME280;48703;51.248;-0.546;2023-08-31T10:38:36;100356;;;15.11;91.30
62632;BME280;48703;51.248;-0.546;2023-08-31T10:41:38;100352;;;15.16;91.85
62632;BME280;48703;51.248;-0.546;2023-08-31T10:44:41;100347;;;15.19;90.39
62632;BME280;48703;51.248;-0.546;2023-08-31T10:47:42;100345;;;15.22;91.72
62632;BME280;48703;51.248;-0.546;2023-08-31T10:50:45;100349;;;15.24;90.93
62632;BME280;48703;51.248;-0.546;2023-08-31T10:53:46;100349;;;15.29;90.78
62632;BME280;48703;51.248;-0.546;2023-08-31T10:56:52;100345;;;15.33;90.13
62632;BME280;48703;51.248;-0.546;2023-08-31T10:59:51;100342;;;15.38;90.37
62632;BME280;48703;51.248;-0.546;2023-08-31T11:02:52;100341;;;15.43;90.92
62632;BME280;48703;51.248;-0.546;2023-08-31T11:05:54;100340;;;15.48;90.81
62632;BME280;48703;51.248;-0.546;2023-08-31T11:08:56;100335;;;15.56;90.29
62632;BME280;48703;51.248;-0.546;2023-08-31T11:11:58;100332;;;15.63;90.13
62632;BME280;48703;51.248;-0.546;2023-08-31T11:15:00;100329;;;15.74;91.04
62632;BME280;48703;51.248;-0.546;2023-08-31T11:18:02;100326;;;15.84;91.53
62632;BME280;48703;51.248;-0.546;2023-08-31T11:21:04;100323;;;15.94;90.75
62632;BME280;48703;51.248;-0.546;2023-08-31T11:24:07;100325;;;16.01;90.59
62632;BME280;48703;51.248;-0.546;2023-08-31T11:27:09;100323;;;16.08;90.27
62632;BME280;48703;51.248;-0.546;2023-08-31T11:30:11;100324;;;16.13;89.88
62632;BME280;48703;51.248;-0.546;2023-08-31T11:33:13;100323;;;16.18;89.85
62632;BME280;48703;51.248;-0.546;2023-08-31T11:36:15;100325;;;16.23;88.77
62632;BME280;48703;51.248;-0.546;2023-08-31T11:39:17;100327;;;16.27;88.31
62632;BME280;48703;51.248;-0.546;2023-08-31T11:42:20;100327;;;16.30;88.34
62632;BME280;48703;51.248;-0.546;2023-08-31T11:45:21;100324;;;16.34;87.91
62632;BME280;48703;51.248;-0.546;2023-08-31T11:48:23;100319;;;16.37;87.05
62632;BME280;48703;51.248;-0.546;2023-08-31T11:51:25;100315;;;16.38;86.23
62632;BME280;48703;51.248;-0.546;2023-08-31T11:54:27;100311;;;16.44;87.28
62632;BME280;48703;51.248;-0.546;2023-08-31T11:57:29;100311;;;16.50;86.40
62632;BME280;48703;51.248;-0.546;2023-08-31T12:00:31;100309;;;16.57;87.46
62632;BME280;48703;51.248;-0.546;2023-08-31T12:03:42;100306;;;16.62;87.28
62632;BME280;48703;51.248;-0.546;2023-08-31T12:06:35;100306;;;16.65;89.25
62632;BME280;48703;51.248;-0.546;2023-08-31T12:09:37;100304;;;16.69;88.46
62632;BME280;48703;51.248;-0.546;2023-08-31T12:12:39;100306;;;16.70;86.78
62632;BME280;48703;51.248;-0.546;2023-08-31T12:15:41;100306;;;16.71;86.30
62632;BME280;48703;51.248;-0.546;2023-08-31T12:18:43;100302;;;16.67;85.67
62632;BME280;48703;51.248;-0.546;2023-08-31T12:21:46;100298;;;16.68;86.41
62632;BME280;48703;51.248;-0.546;2023-08-31T12:24:47;100296;;;16.71;86.67
62632;BME280;48703;51.248;-0.546;2023-08-31T12:27:49;100299;;;16.76;86.45
62632;BME280;48703;51.248;-0.546;2023-08-31T12:30:52;100298;;;16.77;86.88
62632;BME280;48703;51.248;-0.546;2023-08-31T12:33:53;100295;;;16.78;86.78
62632;BME280;48703;51.248;-0.546;2023-08-31T12:36:55;100299;;;16.76;85.93
62632;BME280;48703;51.248;-0.546;2023-08-31T12:39:57;100300;;;16.70;85.90
62632;BME280;48703;51.248;-0.546;2023-08-31T12:43:00;100304;;;16.63;85.74
62632;BME280;48703;51.248;-0.546;2023-08-31T12:46:01;100302;;;16.61;86.03
62632;BME280;48703;51.248;-0.546;2023-08-31T12:49:04;100300;;;16.62;84.91
62632;BME280;48703;51.248;-0.546;2023-08-31T12:52:06;100297;;;16.63;85.41
62632;BME280;48703;51.248;-0.546;2023-08-31T12:55:08;100298;;;16.64;85.49
62632;BME280;48703;51.248;-0.546;2023-08-31T12:58:10;100298;;;16.63;86.48
62632;BME280;48703;51.248;-0.546;2023-08-31T13:01:12;100299;;;16.66;85.00
62632;BME280;48703;51.248;-0.546;2023-08-31T13:04:14;100297;;;16.64;83.51
62632;BME280;48703;51.248;-0.546;2023-08-31T13:07:16;100299;;;16.64;83.25
62632;BME280;48703;51.248;-0.546;2023-08-31T13:10:18;100299;;;16.63;83.16
62632;BME280;48703;51.248;-0.546;2023-08-31T13:13:20;100301;;;16.62;83.47
62632;BME280;48703;51.248;-0.546;2023-08-31T13:16:22;100299;;;16.64;83.05
62632;BME280;48703;51.248;-0.546;2023-08-31T13:19:24;100300;;;16.65;82.37
62632;BME280;48703;51.248;-0.546;2023-08-31T13:22:27;100303;;;16.62;82.19
62632;BME280;48703;51.248;-0.546;2023-08-31T13:25:28;100298;;;16.57;82.15
62632;BME280;48703;51.248;-0.546;2023-08-31T13:28:30;100290;;;16.52;83.58
62632;BME280;48703;51.248;-0.546;2023-08-31T13:31:32;100289;;;16.51;83.23
62632;BME280;48703;51.248;-0.546;2023-08-31T13:34:34;100284;;;16.54;83.21
62632;BME280;48703;51.248;-0.546;2023-08-31T13:37:36;100280;;;16.60;84.29
62632;BME280;48703;51.248;-0.546;2023-08-31T13:40:38;100279;;;16.66;83.60
62632;BME280;48703;51.248;-0.546;2023-08-31T13:43:40;100268;;;16.67;83.69
62632;BME280;48703;51.248;-0.546;2023-08-31T13:46:42;100263;;;16.65;83.94
62632;BME280;48703;51.248;-0.546;2023-08-31T13:49:44;100265;;;16.67;84.72
62632;BME280;48703;51.248;-0.546;2023-08-31T13:52:47;100271;;;16.64;83.05
62632;BME280;48703;51.248;-0.546;2023-08-31T13:55:48;100269;;;16.66;83.16
62632;BME280;48703;51.248;-0.546;2023-08-31T13:58:50;100268;;;16.67;81.96
62632;BME280;48703;51.248;-0.546;2023-08-31T14:01:52;100269;;;16.64;81.48
62632;BME280;48703;51.248;-0.546;2023-08-31T14:04:54;100264;;;16.64;82.04
62632;BME280;48703;51.248;-0.546;2023-08-31T14:07:56;100260;;;16.65;83.25
62632;BME280;48703;51.248;-0.546;2023-08-31T14:10:58;100260;;;16.65;82.30
62632;BME280;48703;51.248;-0.546;2023-08-31T14:14:01;100264;;;16.63;81.62
62632;BME280;48703;51.248;-0.546;2023-08-31T14:17:03;100266;;;16.63;82.47
62632;BME280;48703;51.248;-0.546;2023-08-31T14:20:05;100269;;;16.61;82.05
62632;BME280;48703;51.248;-0.546;2023-08-31T14:23:07;100270;;;16.58;82.12
62632;BME280;48703;51.248;-0.546;2023-08-31T14:26:08;100264;;;16.57;82.45
62632;BME280;48703;51.248;-0.546;2023-08-31T14:29:11;100262;;;16.56;82.14
62632;BME280;48703;51.248;-0.546;2023-08-31T14:32:13;100262;;;16.56;82.35
62632;BME280;48703;51.248;-0.546;2023-08-31T14:35:15;100258;;;16.55;82.91
62632;BME280;48703;51.248;-0.546;2023-08-31T14:38:19;100253;;;16.55;82.81
62632;BME280;48703;51.248;-0.546;2023-08-31T14:41:19;100260;;;16.52;82.70
62632;BME280;48703;51.248;-0.546;2023-08-31T14:44:21;100264;;;16.49;83.56
62632;BME280;48703;51.248;-0.546;2023-08-31T14:47:23;100267;;;16.49;83.34
62632;BME280;48703;51.248;-0.546;2023-08-31T14:50:25;100266;;;16.44;82.75
62632;BME280;48703;51.248;-0.546;2023-08-31T14:53:27;100264;;;16.41;83.49
62632;BME280;48703;51.248;-0.546;2023-08-31T14:56:29;100263;;;16.38;83.58
62632;BME280;48703;51.248;-0.546;2023-08-31T14:59:31;100258;;;16.35;83.56
62632;BME280;48703;51.248;-0.546;2023-08-31T15:02:33;100258;;;16.35;83.30
62632;BME280;48703;51.248;-0.546;2023-08-31T15:05:35;100260;;;16.31;83.55
62632;BME280;48703;51.248;-0.546;2023-08-31T15:08:38;100263;;;16.28;84.05
62632;BME280;48703;51.248;-0.546;2023-08-31T15:11:39;100261;;;16.27;84.41
62632;BME280;48703;51.248;-0.546;2023-08-31T15:14:41;100252;;;16.24;84.95
62632;BME280;48703;51.248;-0.546;2023-08-31T15:17:43;100249;;;16.21;85.79
62632;BME280;48703;51.248;-0.546;2023-08-31T15:20:45;100252;;;16.19;88.03
62632;BME280;48703;51.248;-0.546;2023-08-31T15:23:47;100254;;;16.18;87.25
62632;BME280;48703;51.248;-0.546;2023-08-31T15:26:49;100254;;;16.16;87.34
62632;BME280;48703;51.248;-0.546;2023-08-31T15:29:51;100255;;;16.15;88.87
62632;BME280;48703;51.248;-0.546;2023-08-31T15:32:53;100258;;;16.14;87.75
62632;BME280;48703;51.248;-0.546;2023-08-31T15:36:01;100261;;;16.14;89.04
62632;BME280;48703;51.248;-0.546;2023-08-31T15:38:57;100260;;;16.13;88.39
62632;BME280;48703;51.248;-0.546;2023-08-31T15:41:59;100260;;;16.12;88.66
62632;BME280;48703;51.248;-0.546;2023-08-31T15:45:01;100259;;;16.10;88.30
62632;BME280;48703;51.248;-0.546;2023-08-31T15:48:04;100258;;;16.12;88.44
62632;BME280;48703;51.248;-0.546;2023-08-31T15:51:05;100261;;;16.13;88.81
62632;BME280;48703;51.248;-0.546;2023-08-31T15:54:08;100258;;;16.14;88.21
62632;BME280;48703;51.248;-0.546;2023-08-31T15:57:10;100255;;;16.15;89.92
62632;BME280;48703;51.248;-0.546;2023-08-31T16:00:12;100256;;;16.14;89.92
62632;BME280;48703;51.248;-0.546;2023-08-31T16:03:14;100260;;;16.13;88.46
62632;BME280;48703;51.248;-0.546;2023-08-31T16:06:16;100262;;;16.12;88.81
62632;BME280;48703;51.248;-0.546;2023-08-31T16:09:18;100266;;;16.14;88.57
62632;BME280;48703;51.248;-0.546;2023-08-31T16:12:20;100270;;;16.13;89.06
62632;BME280;48703;51.248;-0.546;2023-08-31T16:15:23;100274;;;16.11;89.04